createdAt,value
2023-02-19T00:05:42.300Z,10.10
2023-02-19T00:10:42.308Z,9.90
2023-02-19T00:15:42.296Z,10.00
2023-02-19T00:20:42.294Z,10.20
2023-02-19T00:40:42.409Z,10.10
2023-02-19T00:50:42.830Z,10.00
2023-02-19T00:55:42.390Z,10.10
2023-02-19T01:00:42.376Z,10.20
2023-02-19T01:05:42.379Z,10.10
2023-02-19T01:10:42.891Z,10.20
2023-02-19T01:15:43.730Z,10.30
2023-02-19T01:20:43.843Z,10.20
2023-02-19T01:30:42.513Z,10.10
2023-02-19T01:40:42.505Z,10.00
2023-02-19T01:45:44.071Z,10.20
2023-02-19T02:05:54.861Z,10.10
2023-02-19T02:10:43.313Z,10.00
2023-02-19T02:16:02.555Z,10.20
2023-02-19T02:20:55.879Z,10.30
2023-02-19T02:25:53.633Z,10.20
2023-02-19T02:30:45.273Z,10.10
2023-02-19T02:35:49.838Z,10.00
2023-02-19T02:40:44.012Z,9.90
2023-02-19T02:45:42.796Z,10.00
2023-02-19T02:55:45.210Z,10.20
2023-02-19T03:00:58.266Z,10.00
2023-02-19T03:05:51.924Z,10.10
2023-02-19T03:10:50.228Z,10.00
2023-02-19T03:15:58.619Z,10.10
2023-02-19T03:20:47.603Z,10.00
2023-02-19T03:35:47.606Z,10.10
2023-02-19T04:05:47.848Z,10.20
2023-02-19T04:10:45.878Z,10.10
2023-02-19T04:15:45.030Z,10.20
2023-02-19T04:25:45.638Z,10.30
2023-02-19T04:30:43.496Z,10.20
2023-02-19T04:35:42.958Z,10.30
2023-02-19T04:45:43.026Z,10.40
2023-02-19T04:50:43.094Z,10.30
2023-02-19T05:05:43.042Z,10.40
2023-02-19T05:10:43.020Z,10.30
2023-02-19T05:15:54.252Z,10.40
2023-02-19T05:20:43.051Z,10.20
2023-02-19T05:25:43.238Z,10.00
2023-02-19T05:30:46.620Z,9.80
2023-02-19T05:45:43.139Z,9.90
2023-02-19T05:50:43.241Z,9.70
2023-02-19T05:55:43.180Z,9.80
2023-02-19T06:15:43.275Z,9.90
2023-02-19T06:20:43.233Z,9.80
2023-02-19T06:25:43.239Z,9.90
2023-02-19T06:30:43.258Z,10.10
2023-02-19T06:40:43.261Z,10.00
2023-02-19T07:05:43.447Z,10.10
2023-02-19T07:10:44.645Z,10.00
2023-02-19T07:15:43.354Z,10.10
2023-02-19T07:20:43.372Z,9.90
2023-02-19T07:30:43.499Z,9.80
2023-02-19T07:35:48.185Z,10.10
2023-02-19T07:40:51.251Z,10.00
2023-02-19T07:45:43.558Z,10.20
2023-02-19T07:50:54.281Z,10.10
2023-02-19T07:55:43.543Z,10.20
2023-02-19T08:05:43.950Z,10.30
2023-02-19T08:10:53.469Z,10.20
2023-02-19T08:15:44.175Z,10.10
2023-02-19T08:20:43.665Z,10.00
2023-02-19T08:30:45.748Z,9.90
2023-02-19T08:35:44.188Z,10.00
2023-02-19T08:45:46.290Z,9.90
2023-02-19T08:50:43.588Z,10.00
2023-02-19T08:55:43.580Z,10.30
2023-02-19T09:05:45.795Z,10.50
2023-02-19T09:10:43.669Z,10.60
2023-02-19T09:15:43.696Z,10.80
2023-02-19T09:20:43.680Z,10.90
2023-02-19T09:25:43.817Z,10.80
2023-02-19T09:35:43.746Z,10.90
2023-02-19T09:40:43.817Z,11.00
2023-02-19T09:45:43.769Z,11.20
2023-02-19T09:55:44.229Z,11.50
2023-02-19T10:00:47.668Z,11.60
2023-02-19T10:05:43.985Z,12.00
2023-02-19T10:10:44.529Z,12.10
2023-02-19T10:15:49.423Z,12.40
2023-02-19T10:20:45.404Z,12.60
2023-02-19T10:25:53.238Z,12.50
2023-02-19T10:30:50.299Z,12.40
2023-02-19T10:35:54.546Z,12.30
2023-02-19T10:40:45.161Z,12.10
2023-02-19T10:50:55.018Z,12.00
2023-02-19T11:00:43.916Z,11.90
2023-02-19T11:10:47.217Z,12.00
2023-02-19T11:15:51.753Z,12.10
2023-02-19T11:20:54.739Z,11.90
2023-02-19T11:25:47.674Z,12.00
2023-02-19T11:30:45.601Z,11.90
2023-02-19T11:35:44.828Z,12.00
2023-02-19T11:40:47.291Z,12.20
2023-02-19T11:45:51.116Z,12.40
2023-02-19T12:00:58.425Z,12.30
2023-02-19T12:05:51.061Z,12.40
2023-02-19T12:11:03.984Z,12.30
2023-02-19T12:21:02.588Z,12.20
2023-02-19T12:25:54.465Z,12.40
2023-02-19T12:30:54.111Z,12.20
2023-02-19T12:41:01.524Z,12.40
2023-02-19T12:45:55.243Z,-0.70
2023-02-19T12:50:48.375Z,-1.30
2023-02-19T12:52:23.692Z,-1.30
2023-02-19T12:52:27.768Z,-1.30
2023-02-19T12:52:35.621Z,-1.30
2023-02-19T12:52:39.867Z,-1.30
2023-02-19T13:00:50.514Z,-0.70
2023-02-19T13:05:53.053Z,-0.60
2023-02-19T13:10:50.504Z,-0.50
2023-02-19T13:17:00.770Z,-0.40
2023-02-19T13:17:16.032Z,-0.40
2023-02-19T13:17:18.284Z,-0.40
2023-02-19T13:17:27.557Z,-0.40
2023-02-19T13:20:46.838Z,-0.30
2023-02-19T13:26:00.957Z,12.70
2023-02-19T13:30:58.211Z,12.30
2023-02-19T13:36:04.918Z,12.20
2023-02-19T13:40:54.664Z,12.00
2023-02-19T13:45:45.372Z,12.30
2023-02-19T13:50:44.462Z,12.20
2023-02-19T13:55:50.472Z,12.40
2023-02-19T14:00:49.375Z,12.30
2023-02-19T14:05:57.617Z,12.50
2023-02-19T14:10:51.791Z,12.30
2023-02-19T14:15:48.628Z,12.00
2023-02-19T14:20:44.826Z,12.10
2023-02-19T14:25:48.654Z,12.40
2023-02-19T14:31:04.395Z,12.60
2023-02-19T14:40:45.697Z,12.50
2023-02-19T14:45:52.136Z,12.40
2023-02-19T14:50:49.057Z,12.10
2023-02-19T14:55:45.673Z,11.40
2023-02-19T15:00:44.615Z,11.30
2023-02-19T15:05:44.626Z,11.40
2023-02-19T15:10:45.574Z,11.50
2023-02-19T15:15:45.421Z,11.20
2023-02-19T15:20:44.902Z,10.90
2023-02-19T15:25:44.657Z,10.80
2023-02-19T15:30:44.804Z,10.50
2023-02-19T15:35:55.763Z,10.40
2023-02-19T15:40:46.316Z,10.10
2023-02-19T15:45:46.296Z,10.40
2023-02-19T15:50:51.564Z,10.30
2023-02-19T15:55:57.367Z,10.40
2023-02-19T16:10:53.048Z,10.10
2023-02-19T16:15:56.451Z,10.40
2023-02-19T16:20:46.483Z,10.20
2023-02-19T16:25:45.974Z,10.10
2023-02-19T16:30:45.075Z,9.60
2023-02-19T16:35:47.322Z,9.40
2023-02-19T16:41:04.683Z,9.80
2023-02-19T16:45:46.319Z,9.60
2023-02-19T16:50:45.291Z,9.80
2023-02-19T17:00:45.929Z,9.70
2023-02-19T17:05:45.489Z,9.80
2023-02-19T17:10:44.923Z,9.60
2023-02-19T17:15:44.942Z,9.70
2023-02-19T17:20:50.758Z,9.60
2023-02-19T17:25:45.089Z,9.50
2023-02-19T17:30:44.911Z,9.60
2023-02-19T17:35:44.941Z,9.40
2023-02-19T17:40:44.968Z,9.30
2023-02-19T17:50:45.049Z,9.20
2023-02-19T17:55:45.096Z,9.30
2023-02-19T18:00:45.050Z,9.00
2023-02-19T18:10:45.051Z,8.70
2023-02-19T18:15:45.055Z,8.40
2023-02-19T18:25:45.995Z,8.60
2023-02-19T18:30:45.299Z,8.50
2023-02-19T18:35:48.205Z,8.60
2023-02-19T18:40:45.774Z,8.50
2023-02-19T18:45:45.645Z,8.70
2023-02-19T18:50:45.162Z,8.50
2023-02-19T18:55:45.167Z,8.30
2023-02-19T19:05:45.202Z,8.00
2023-02-19T19:10:45.179Z,7.90
2023-02-19T19:15:48.796Z,8.00
2023-02-19T19:25:45.220Z,8.10
2023-02-19T19:30:45.411Z,8.00
2023-02-19T19:35:45.275Z,8.10
2023-02-19T19:40:45.292Z,8.00
2023-02-19T19:50:45.354Z,7.90
2023-02-19T19:55:45.280Z,8.00
2023-02-19T20:05:49.221Z,7.90
2023-02-19T20:10:45.566Z,7.70
2023-02-19T20:20:45.433Z,7.60
2023-02-19T20:25:45.364Z,7.50
2023-02-19T20:35:45.391Z,7.90
2023-02-19T20:40:45.578Z,7.50
2023-02-19T20:45:46.767Z,7.60
2023-02-19T20:50:45.596Z,7.50
2023-02-19T20:55:45.430Z,7.40
2023-02-19T21:00:45.569Z,7.30
2023-02-19T21:10:45.661Z,7.10
2023-02-19T21:15:45.554Z,7.00
2023-02-19T21:35:45.565Z,7.10
2023-02-19T21:50:46.738Z,7.20
2023-02-19T22:00:45.644Z,7.30
2023-02-19T22:05:45.637Z,7.50
2023-02-19T22:20:45.692Z,7.60
2023-02-19T22:30:45.727Z,7.70
2023-02-19T22:35:45.701Z,7.80
2023-02-19T22:40:45.752Z,7.90
2023-02-19T22:50:45.853Z,7.80
2023-02-19T22:55:45.766Z,7.90
2023-02-19T23:05:45.801Z,8.00
2023-02-19T23:10:45.798Z,8.10
2023-02-19T23:15:45.909Z,8.40
2023-02-19T23:40:46.001Z,8.50
2023-02-19T23:45:46.064Z,8.60
2023-02-19T23:50:45.940Z,8.50
